Teigen, MT

10:15 AM MDT on October 22, 2014 (GMT -0600)
RAWS DRY BLOOD CREEK MT US | Change Station
CLOSE
Current Station
Personal Weather Station
Location: Teigen, MT
Elevation: 3152 ft
Nearby Weather Stations

Elev 3152 ft 47.24 °N, 108.36 °W | Updated 34 minutes ago

Clear
Clear
52 °F
Feels Like 52 °F
N
11
Wind Variable Wind from WSW
Gusts 19.0 mph

Today
High -- | Low -- °F
--% Chance of Precip.
Yesterday
High -- | Low -- °F
Precip. -- in
7:42 AM 6:14 PM
Waning Crescent, 2% visible
Pressure 29.98 in
Visibility 10.0 miles
Clouds Clear
Dew Point 32 °F
Humidity 46%
Rainfall 0.00 in
Snow Depth Not available.
UV 1 out of 12
Pollen 2.60 out of 12
Air Quality Not available.
Flu Activity Not available.
METAR KLWT 221554Z AUTO 25018KT 10SM CLR 09/01 A2998 RMK AO2 SLP150 T00940006

More Conditions Fewer Conditions

Pressure 29.98 in
Visibility 10.0 miles
Clouds Clear
Dew Point 32 °F
Humidity 46%
Rainfall 0.00 in
Snow Depth Not available.
UV 1 out of 12
Pollen 2.60 out of 12
Air Quality Not available.
Flu Activity Not available.
METAR KLWT 221554Z AUTO 25018KT 10SM CLR 09/01 A2998 RMK AO2 SLP150 T00940006

More Conditions Fewer Conditions

10-Day Weather Forecast

Almanac

Astronomy

Oct. 22, 2014 Rise Set
Actual Time 7:42 AM MDT 6:14 PM MDT
Civil Twilight 7:11 AM MDT 6:45 PM MDT
Nautical Twilight 6:35 AM MDT 7:20 PM MDT
Astronomical Twilight 6:00 AM MDT 7:56 PM MDT
Moon 6:22 AM MDT 5:45 PM MDT
Length of Visible Light 11h 33m
Length of Day
10h 31m
Tomorrow will be 3m 10s shorter.
Waning Crescent, 2% of the Moon is Illuminated
Today
Waning Crescent
Oct 23
New
Oct 30
First Quarter
Nov 6
Full
Nov 14
Last Quarter

Today's Extremes

State Highs State Lows

Community

WunderPhotos

Upload Photos

1,763,955 photos uploaded!

Nearby

Snow Depth

Station Depth Elevation
Crystal Lake 1 in 6050 ft
Daisy Peak 0 in 7600 ft
Rocky Boy 0 in 4700 ft
Spur Park 1 in 8100 ft
Deadman Creek 0 in 6450 ft

Earthquake Activity

City Distance Mag. Time & Date
No recent earthquake activity has been reported nearby.
Minimum magnitude displayed is 2.5.

Coastal Water Temperatures

Place Temperature
No Stations Reporting

Nearby Weather Stations